Time;durP1;ratioP1;P1;durP2;ratioP2;P2;SDS_P1;SDS_P2;PMS_P1;PMS_P2;Temp;Humidity;BMP_temperature;BMP_pressure;BME280_temperature;BME280_humidity;BME280_pressure;Samples;Min_cycle;Max_cycle;Signal;HPM_P1;HPM_P2
2024/01/18 00:01:01;;;;;;;0.67;0.67;;;9.50;68.80;;;;;;5058189;28;20182;-85
2024/01/18 00:03:27;;;;;;;0.70;0.70;;;9.50;66.60;;;;;;5040432;28;20167;-84
2024/01/18 00:05:52;;;;;;;0.70;0.70;;;9.50;66.40;;;;;;5057814;28;20178;-83
2024/01/18 00:08:18;;;;;;;0.70;0.70;;;9.50;64.80;;;;;;5042430;28;20244;-83
2024/01/18 00:10:44;;;;;;;0.60;0.60;;;9.40;71.90;;;;;;5076522;28;20193;-81
2024/01/18 00:13:10;;;;;;;0.60;0.60;;;9.40;81.90;;;;;;5076803;28;20167;-82
2024/01/18 00:15:35;;;;;;;0.70;0.70;;;9.40;85.40;;;;;;5058274;28;20255;-83
2024/01/18 00:18:03;;;;;;;0.70;0.70;;;9.40;80.70;;;;;;5057429;28;20228;-83
2024/01/18 00:20:29;;;;;;;0.70;0.70;;;9.40;84.70;;;;;;5058459;28;20179;-83
2024/01/18 00:22:55;;;;;;;0.70;0.70;;;9.40;83.80;;;;;;5059306;28;20701;-85
2024/01/18 00:25:21;;;;;;;0.80;0.80;;;9.30;81.40;;;;;;5057492;28;20198;-84
2024/01/18 00:27:47;;;;;;;0.70;0.70;;;9.40;80.40;;;;;;5059630;28;20274;-84
2024/01/18 00:30:13;;;;;;;0.70;0.70;;;9.30;79.70;;;;;;5061190;28;20194;-83
2024/01/18 00:32:39;;;;;;;0.70;0.70;;;9.30;73.10;;;;;;5062591;28;20179;-82
2024/01/18 00:35:05;;;;;;;0.73;0.73;;;9.30;69.90;;;;;;5063467;28;20237;-83
2024/01/18 00:37:30;;;;;;;0.70;0.70;;;9.30;68.50;;;;;;5067314;28;20203;-83
2024/01/18 00:39:56;;;;;;;0.70;0.70;;;9.20;65.40;;;;;;5072026;28;20175;-83
2024/01/18 00:42:21;;;;;;;0.63;0.63;;;9.20;69.50;;;;;;5071530;28;20167;-82
2024/01/18 00:44:47;;;;;;;0.60;0.60;;;9.20;76.30;;;;;;5066000;28;20172;-82
2024/01/18 00:47:12;;;;;;;0.80;0.80;;;9.10;79.80;;;;;;5066827;28;20680;-83
2024/01/18 00:49:38;;;;;;;0.80;0.80;;;9.10;86.90;;;;;;5059605;28;20206;-84
2024/01/18 00:52:04;;;;;;;0.80;0.80;;;9.10;82.90;;;;;;5062181;28;20171;-83
2024/01/18 00:54:29;;;;;;;0.60;0.60;;;9.00;87.20;;;;;;5053256;28;20170;-82
2024/01/18 00:56:55;;;;;;;0.70;0.70;;;9.00;89.40;;;;;;5070729;28;20187;-83
2024/01/18 00:59:20;;;;;;;0.60;0.60;;;9.00;89.30;;;;;;5060511;28;20215;-83
2024/01/18 01:01:46;;;;;;;0.60;0.60;;;8.90;79.00;;;;;;5057711;28;20262;-84
2024/01/18 01:04:12;;;;;;;0.77;0.77;;;8.90;80.00;;;;;;5059576;28;20553;-84
2024/01/18 01:06:37;;;;;;;0.60;0.60;;;8.90;63.30;;;;;;5058864;28;20191;-84
2024/01/18 01:09:04;;;;;;;0.70;0.70;;;8.80;61.60;;;;;;5041564;28;20179;-85
2024/01/18 01:11:31;;;;;;;0.70;0.70;;;8.80;66.00;;;;;;5047096;28;20194;-82
2024/01/18 01:13:57;;;;;;;0.70;0.70;;;8.80;86.80;;;;;;5077611;28;20195;-82
2024/01/18 01:16:24;;;;;;;0.60;0.60;;;8.80;92.10;;;;;;5077639;28;20191;-81
2024/01/18 01:18:49;;;;;;;0.70;0.70;;;8.80;93.90;;;;;;5066564;28;20199;-84
2024/01/18 01:21:15;;;;;;;0.60;0.60;;;8.80;97.10;;;;;;5060889;28;20617;-82
2024/01/18 01:23:44;;;;;;;0.57;0.57;;;8.80;96.80;;;;;;5061857;28;20547;-84
2024/01/18 01:26:09;;;;;;;0.60;0.60;;;8.80;93.00;;;;;;5061234;28;20195;-84
2024/01/18 01:28:35;;;;;;;0.63;0.63;;;9.10;96.50;;;;;;5060319;28;20197;-83
2024/01/18 01:31:00;;;;;;;0.60;0.60;;;8.90;95.80;;;;;;5060648;28;20598;-83
2024/01/18 01:33:26;;;;;;;0.70;0.70;;;9.00;93.90;;;;;;5061114;28;20258;-84
2024/01/18 01:35:52;;;;;;;0.70;0.70;;;9.00;96.90;;;;;;5060625;28;20179;-83
2024/01/18 01:38:17;;;;;;;0.67;0.67;;;9.00;99.30;;;;;;5061237;28;20219;-83
2024/01/18 01:40:43;;;;;;;0.70;0.70;;;9.10;99.90;;;;;;5061692;28;20175;-85
2024/01/18 01:43:10;;;;;;;0.67;0.67;;;9.10;97.00;;;;;;5061700;28;20205;-84
2024/01/18 01:45:35;;;;;;;0.70;0.70;;;9.00;96.60;;;;;;5061022;28;20171;-83
2024/01/18 01:48:01;;;;;;;0.70;0.70;;;9.10;93.00;;;;;;5060854;28;20187;-82
2024/01/18 01:50:27;;;;;;;0.60;0.60;;;9.10;99.10;;;;;;5062436;28;20199;-84
2024/01/18 01:52:53;;;;;;;0.60;0.60;;;9.00;96.00;;;;;;5061852;28;20175;-82
2024/01/18 01:55:19;;;;;;;0.60;0.60;;;9.00;95.80;;;;;;5062434;28;20172;-83
2024/01/18 01:57:47;;;;;;;0.70;0.70;;;9.00;96.30;;;;;;5061512;28;20205;-85
2024/01/18 02:00:15;;;;;;;0.70;0.70;;;9.00;93.20;;;;;;5062610;28;20182;-83
2024/01/18 02:02:42;;;;;;;0.70;0.70;;;9.00;91.60;;;;;;5062991;28;20562;-83
2024/01/18 02:05:09;;;;;;;0.60;0.60;;;9.00;94.00;;;;;;5064211;28;20190;-84
2024/01/18 02:07:38;;;;;;;0.63;0.63;;;9.00;95.30;;;;;;5063841;28;20563;-83
2024/01/18 02:10:05;;;;;;;0.63;0.63;;;9.00;99.10;;;;;;5063332;28;20182;-84
2024/01/18 02:12:32;;;;;;;0.70;0.70;;;9.00;99.70;;;;;;5062092;28;20560;-83
2024/01/18 02:14:57;;;;;;;0.60;0.60;;;9.00;99.50;;;;;;5062684;28;20255;-84
2024/01/18 02:17:23;;;;;;;0.60;0.60;;;9.00;96.50;;;;;;5062376;28;20187;-83
2024/01/18 02:19:49;;;;;;;0.63;0.63;;;9.00;94.60;;;;;;5066289;28;20179;-83
2024/01/18 02:22:17;;;;;;;0.70;0.70;;;9.00;88.00;;;;;;5076925;28;20179;-83
2024/01/18 02:24:49;;;;;;;0.70;0.70;;;9.00;85.60;;;;;;5076506;28;20172;-82
2024/01/18 02:27:15;;;;;;;0.70;0.70;;;9.00;88.20;;;;;;5075449;28;20209;-83
2024/01/18 02:29:41;;;;;;;0.70;0.70;;;9.00;91.40;;;;;;5076266;28;20194;-83
2024/01/18 02:32:06;;;;;;;0.60;0.60;;;9.10;79.40;;;;;;5076535;28;20163;-83
2024/01/18 02:34:38;;;;;;;0.67;0.67;;;9.10;78.30;;;;;;5068497;28;20229;-84
2024/01/18 02:37:07;;;;;;;0.50;0.50;;;9.10;77.70;;;;;;5047118;28;20197;-82
2024/01/18 02:39:35;;;;;;;0.70;0.70;;;9.10;68.80;;;;;;5076384;28;20214;-81
2024/01/18 02:42:02;;;;;;;0.60;0.60;;;9.10;64.00;;;;;;5076827;28;20174;-81
2024/01/18 02:44:28;;;;;;;0.80;0.80;;;9.10;60.00;;;;;;5067126;28;20214;-84
2024/01/18 02:46:54;;;;;;;0.60;0.60;;;9.10;56.70;;;;;;5060012;28;20194;-84
2024/01/18 02:49:19;;;;;;;0.70;0.70;;;9.10;53.10;;;;;;5060977;28;20179;-82
2024/01/18 02:51:45;;;;;;;0.60;0.60;;;9.10;48.40;;;;;;5060798;28;20175;-85
2024/01/18 02:54:11;;;;;;;0.80;0.80;;;9.00;47.20;;;;;;5059607;28;20190;-83
2024/01/18 02:56:39;;;;;;;0.70;0.70;;;9.00;47.00;;;;;;5042780;28;20195;-84
2024/01/18 02:59:05;;;;;;;0.60;0.60;;;8.90;58.20;;;;;;5043172;28;20217;-84
2024/01/18 03:01:33;;;;;;;0.73;0.73;;;8.90;72.90;;;;;;5061119;28;20180;-85
2024/01/18 03:03:59;;;;;;;0.77;0.77;;;8.90;86.30;;;;;;5061232;28;20191;-84
2024/01/18 03:06:24;;;;;;;0.80;0.80;;;8.90;88.90;;;;;;5062105;28;20559;-84
2024/01/18 03:08:50;;;;;;;0.70;0.70;;;8.90;87.00;;;;;;5066998;28;20201;-82
2024/01/18 03:11:16;;;;;;;0.60;0.60;;;9.00;85.30;;;;;;5073079;28;20174;-82
2024/01/18 03:13:41;;;;;;;0.60;0.60;;;9.00;88.80;;;;;;5073444;28;20164;-83
2024/01/18 03:16:08;;;;;;;0.70;0.70;;;9.00;91.20;;;;;;5073078;28;20425;-84
2024/01/18 03:18:34;;;;;;;0.70;0.70;;;9.00;90.90;;;;;;5059015;28;20221;-84
2024/01/18 03:21:00;;;;;;;0.67;0.67;;;8.90;82.80;;;;;;5058160;28;20209;-84
2024/01/18 03:23:25;;;;;;;0.60;0.60;;;8.90;94.40;;;;;;5059151;28;20171;-83
2024/01/18 03:25:51;;;;;;;0.60;0.60;;;8.90;99.90;;;;;;5057603;28;20206;-84
2024/01/18 03:28:17;;;;;;;0.77;0.77;;;8.80;99.90;;;;;;5056956;28;20189;-84
2024/01/18 03:30:42;;;;;;;0.60;0.60;;;8.80;99.90;;;;;;5057578;28;20220;-84
2024/01/18 03:33:08;;;;;;;0.70;0.70;;;8.80;99.90;;;;;;5056641;28;20274;-83
2024/01/18 03:35:34;;;;;;;0.50;0.50;;;8.80;99.90;;;;;;5055899;28;20175;-83
2024/01/18 03:37:59;;;;;;;0.60;0.60;;;8.80;99.90;;;;;;5054644;28;20221;-84
2024/01/18 03:40:25;;;;;;;0.50;0.50;;;8.80;99.90;;;;;;5053824;28;20298;-84
2024/01/18 03:42:50;;;;;;;0.60;0.60;;;8.80;99.90;;;;;;5055992;28;20198;-83
2024/01/18 03:45:17;;;;;;;0.70;0.70;;;8.80;99.90;;;;;;5056080;28;20233;-82
2024/01/18 03:47:42;;;;;;;0.57;0.57;;;8.80;99.90;;;;;;5054525;28;20209;-84
2024/01/18 03:50:08;;;;;;;0.60;0.60;;;8.70;99.90;;;;;;5054752;28;20273;-82
2024/01/18 03:52:34;;;;;;;0.63;0.63;;;8.70;99.90;;;;;;5055780;28;20232;-83
2024/01/18 03:54:59;;;;;;;0.60;0.60;;;8.60;99.90;;;;;;5053880;28;20202;-82
2024/01/18 03:57:25;;;;;;;0.70;0.70;;;8.60;99.90;;;;;;5035956;28;20187;-83
2024/01/18 03:59:51;;;;;;;0.70;0.70;;;8.50;99.90;;;;;;5054412;28;20228;-83
2024/01/18 04:02:16;;;;;;;0.60;0.60;;;8.40;99.90;;;;;;5054693;28;20198;-84
2024/01/18 04:04:43;;;;;;;0.70;0.70;;;8.40;99.90;;;;;;5054731;28;20257;-83
2024/01/18 04:07:09;;;;;;;0.70;0.70;;;8.30;99.90;;;;;;5056791;28;20290;-83
2024/01/18 04:09:34;;;;;;;0.80;0.80;;;8.30;99.90;;;;;;5037600;28;20268;-84
2024/01/18 04:12:00;;;;;;;0.60;0.60;;;8.30;99.90;;;;;;5055579;28;20542;-82
2024/01/18 04:14:27;;;;;;;0.87;0.87;;;8.30;99.90;;;;;;5068275;28;20656;-83
2024/01/18 04:16:53;;;;;;;0.80;0.80;;;8.40;99.90;;;;;;5074995;28;20263;-81
2024/01/18 04:19:20;;;;;;;0.70;0.70;;;8.50;99.90;;;;;;5066972;28;20211;-83
2024/01/18 04:21:46;;;;;;;0.70;0.70;;;8.60;99.90;;;;;;5056212;28;20167;-82
2024/01/18 04:24:12;;;;;;;0.70;0.70;;;8.60;99.90;;;;;;5076166;28;20224;-81
2024/01/18 04:26:37;;;;;;;0.73;0.73;;;8.60;99.90;;;;;;5061315;28;20203;-83
2024/01/18 04:29:03;;;;;;;0.70;0.70;;;8.70;99.90;;;;;;5056877;28;20178;-83
2024/01/18 04:31:29;;;;;;;0.80;0.80;;;8.70;99.90;;;;;;5056912;28;20179;-83
2024/01/18 04:33:55;;;;;;;0.70;0.70;;;8.70;99.90;;;;;;5057565;28;20179;-83
2024/01/18 04:36:21;;;;;;;0.80;0.80;;;8.70;99.90;;;;;;5056777;28;20214;-82
2024/01/18 04:38:47;;;;;;;0.63;0.63;;;8.70;99.90;;;;;;5058033;28;20580;-83
2024/01/18 04:41:12;;;;;;;0.80;0.80;;;8.80;99.90;;;;;;5041822;28;20179;-84
2024/01/18 04:43:38;;;;;;;0.70;0.70;;;8.80;99.90;;;;;;5064299;28;20183;-83
2024/01/18 04:46:04;;;;;;;0.60;0.60;;;8.80;99.90;;;;;;5067164;28;20187;-83
2024/01/18 04:48:30;;;;;;;0.70;0.70;;;8.90;99.90;;;;;;5073201;28;20183;-82
2024/01/18 04:50:57;;;;;;;0.60;0.60;;;8.90;99.90;;;;;;5075592;28;20178;-83
2024/01/18 04:53:23;;;;;;;0.70;0.70;;;8.90;99.90;;;;;;5073074;28;20199;-83
2024/01/18 04:55:48;;;;;;;0.70;0.70;;;8.90;99.90;;;;;;5063057;28;20186;-83
2024/01/18 04:58:14;;;;;;;0.67;0.67;;;8.90;99.90;;;;;;5061949;28;20199;-82
2024/01/18 05:00:40;;;;;;;0.67;0.67;;;9.00;99.90;;;;;;5062530;28;20167;-83
2024/01/18 05:03:07;;;;;;;0.70;0.70;;;9.00;99.90;;;;;;5062345;28;20262;-83
2024/01/18 05:05:32;;;;;;;0.70;0.70;;;9.00;99.90;;;;;;5044113;28;20167;-84
2024/01/18 05:07:58;;;;;;;0.70;0.70;;;8.90;99.90;;;;;;5062096;28;20199;-84
2024/01/18 05:10:24;;;;;;;0.63;0.63;;;8.80;99.90;;;;;;5062155;28;20208;-83
2024/01/18 05:12:49;;;;;;;0.70;0.70;;;8.80;97.60;;;;;;5062857;28;20274;-84
2024/01/18 05:15:15;;;;;;;0.70;0.70;;;8.60;72.80;;;;;;5062270;28;20187;-83
2024/01/18 05:17:42;;;;;;;0.60;0.60;;;8.60;94.10;;;;;;5061954;28;20288;-84
2024/01/18 05:20:08;;;;;;;0.83;0.83;;;8.70;99.90;;;;;;5064808;28;20191;-83
2024/01/18 05:22:34;;;;;;;0.70;0.70;;;8.70;99.90;;;;;;5073966;28;20168;-83
2024/01/18 05:25:00;;;;;;;0.70;0.70;;;8.70;99.90;;;;;;5078498;28;20210;-82
2024/01/18 05:27:29;;;;;;;0.60;0.60;;;8.70;99.90;;;;;;5077708;28;20229;-82
2024/01/18 05:29:55;;;;;;;0.60;0.60;;;8.80;99.90;;;;;;5068556;28;20195;-84
2024/01/18 05:32:21;;;;;;;0.70;0.70;;;8.80;99.90;;;;;;5076193;28;20226;-82
2024/01/18 05:34:50;;;;;;;0.60;0.60;;;8.80;99.90;;;;;;5076485;28;20171;-82
2024/01/18 05:37:17;;;;;;;0.70;0.70;;;8.80;99.90;;;;;;5075314;28;20196;-83
2024/01/18 05:39:42;;;;;;;0.70;0.70;;;8.80;99.90;;;;;;5075798;28;20167;-82
2024/01/18 05:42:08;;;;;;;0.60;0.60;;;8.80;99.90;;;;;;5063729;28;20178;-83
2024/01/18 05:44:34;;;;;;;0.60;0.60;;;8.70;99.90;;;;;;5059093;28;20241;-84
2024/01/18 05:47:00;;;;;;;0.70;0.70;;;8.60;99.90;;;;;;5058793;28;20739;-84
2024/01/18 05:49:25;;;;;;;0.80;0.80;;;8.60;99.90;;;;;;5059135;28;20182;-83
2024/01/18 05:51:51;;;;;;;0.60;0.60;;;8.60;99.90;;;;;;5061846;28;20183;-84
2024/01/18 05:54:17;;;;;;;0.70;0.70;;;8.60;99.90;;;;;;5060067;28;20167;-84
2024/01/18 05:56:43;;;;;;;0.60;0.60;;;8.80;99.90;;;;;;5060052;28;20692;-84
2024/01/18 05:59:08;;;;;;;0.70;0.70;;;8.60;99.90;;;;;;5060940;28;20637;-83
2024/01/18 06:01:34;;;;;;;0.70;0.70;;;8.60;99.90;;;;;;5069452;28;20219;-84
2024/01/18 06:04:00;;;;;;;0.50;0.50;;;8.60;99.90;;;;;;5061194;28;20566;-83
2024/01/18 06:06:25;;;;;;;0.70;0.70;;;8.70;99.90;;;;;;5059094;28;20286;-84
2024/01/18 06:08:51;;;;;;;0.70;0.70;;;8.70;99.90;;;;;;5060705;28;20700;-85
2024/01/18 06:11:18;;;;;;;0.80;0.80;;;8.70;99.90;;;;;;5060944;28;20179;-84
2024/01/18 06:13:44;;;;;;;0.60;0.60;;;8.70;99.90;;;;;;5060049;28;20548;-84
2024/01/18 06:16:10;;;;;;;0.70;0.70;;;8.70;99.90;;;;;;5059875;28;20567;-83
2024/01/18 06:18:42;;;;;;;0.77;0.77;;;8.70;99.90;;;;;;5059850;28;20260;-86
2024/01/18 06:21:08;;;;;;;0.60;0.60;;;8.70;99.90;;;;;;5060496;28;20179;-84
2024/01/18 06:23:35;;;;;;;0.70;0.70;;;8.50;99.90;;;;;;5059618;28;20186;-85
2024/01/18 06:26:00;;;;;;;0.70;0.70;;;7.80;41.10;;;;;;5041267;28;20195;-86
2024/01/18 06:28:26;;;;;;;0.60;0.60;;;7.20;83.70;;;;;;5059670;28;20266;-85
2024/01/18 06:30:52;;;;;;;0.70;0.70;;;6.80;99.90;;;;;;5060437;28;20171;-85
2024/01/18 06:33:17;;;;;;;0.70;0.70;;;6.50;99.90;;;;;;5061108;28;20224;-85
2024/01/18 06:35:43;;;;;;;0.70;0.70;;;6.10;99.90;;;;;;5060054;28;20206;-85
2024/01/18 06:38:09;;;;;;;0.70;0.70;;;5.90;99.90;;;;;;5059713;28;20221;-86
2024/01/18 06:40:34;;;;;;;0.70;0.70;;;5.60;99.90;;;;;;5060254;28;20176;-85
2024/01/18 06:43:00;;;;;;;0.70;0.70;;;5.30;99.90;;;;;;5060830;28;20487;-84
2024/01/18 06:45:26;;;;;;;0.70;0.70;;;5.10;99.90;;;;;;5070677;28;20179;-82
2024/01/18 06:47:51;;;;;;;0.80;0.80;;;4.80;99.90;;;;;;5075179;28;20225;-83
2024/01/18 06:50:17;;;;;;;0.80;0.80;;;4.60;99.90;;;;;;5071943;28;20267;-85
2024/01/18 06:52:43;;;;;;;0.70;0.70;;;4.50;99.90;;;;;;5061414;28;20186;-84
2024/01/18 06:55:08;;;;;;;0.80;0.80;;;4.40;99.90;;;;;;5064318;28;20554;-85
2024/01/18 06:57:36;;;;;;;0.70;0.70;;;4.30;99.90;;;;;;5061448;28;20692;-83
2024/01/18 07:00:03;;;;;;;0.70;0.70;;;4.20;99.90;;;;;;5059087;28;20163;-83
2024/01/18 07:02:29;;;;;;;0.80;0.80;;;4.00;99.90;;;;;;5058768;28;20184;-85
2024/01/18 07:04:54;;;;;;;0.80;0.80;;;4.00;99.90;;;;;;5058107;28;20167;-83
2024/01/18 07:07:20;;;;;;;0.80;0.80;;;3.90;99.90;;;;;;5040426;28;20191;-85
2024/01/18 07:09:46;;;;;;;0.80;0.80;;;4.20;99.90;;;;;;5058203;28;20205;-84
2024/01/18 07:12:11;;;;;;;0.80;0.80;;;3.90;99.90;;;;;;5058630;28;20183;-84
2024/01/18 07:14:37;;;;;;;0.80;0.80;;;3.80;99.90;;;;;;5063753;28;20237;-82
2024/01/18 07:17:03;;;;;;;0.80;0.80;;;3.80;99.90;;;;;;5073284;28;20198;-82
2024/01/18 07:19:29;;;;;;;0.70;0.70;;;3.70;99.90;;;;;;5064102;28;20746;-85
2024/01/18 07:21:54;;;;;;;0.80;0.80;;;3.70;99.90;;;;;;5059102;28;20202;-85
2024/01/18 07:24:22;;;;;;;0.80;0.80;;;3.70;99.90;;;;;;5058547;28;20266;-84
2024/01/18 07:26:48;;;;;;;0.70;0.70;;;3.70;99.90;;;;;;5058654;28;20210;-85
2024/01/18 07:29:14;;;;;;;0.70;0.70;;;3.70;99.90;;;;;;5041568;28;20203;-84
2024/01/18 07:31:40;;;;;;;0.90;0.90;;;3.80;99.90;;;;;;5062884;28;20175;-81
2024/01/18 07:34:05;;;;;;;0.80;0.80;;;3.80;99.90;;;;;;5061555;28;20183;-83
2024/01/18 07:36:31;;;;;;;0.80;0.80;;;3.90;99.90;;;;;;5056767;28;20194;-84
2024/01/18 07:38:57;;;;;;;0.73;0.73;;;4.00;99.90;;;;;;5055084;28;20243;-85
2024/01/18 07:41:24;;;;;;;0.80;0.80;;;4.20;99.90;;;;;;5034791;28;20175;-86
2024/01/18 07:43:49;;;;;;;0.80;0.80;;;4.30;99.90;;;;;;5052340;28;20183;-83
2024/01/18 07:46:15;;;;;;;0.80;0.80;;;4.40;99.90;;;;;;5056942;28;20567;-87
2024/01/18 07:48:40;;;;;;;0.80;0.80;;;4.60;99.90;;;;;;5052868;28;20171;-87
2024/01/18 07:51:09;;;;;;;0.80;0.80;;;4.70;99.90;;;;;;5041120;28;20934;-86
2024/01/18 07:53:35;;;;;;;0.80;0.80;;;4.80;99.90;;;;;;5054158;28;20230;-84
2024/01/18 07:56:00;;;;;;;0.87;0.87;;;4.70;99.90;;;;;;5056055;28;20198;-85
2024/01/18 07:58:26;;;;;;;0.77;0.77;;;4.70;99.90;;;;;;5056824;28;20203;-86
2024/01/18 08:00:53;;;;;;;0.57;0.57;;;4.60;99.90;;;;;;5057470;28;20328;-84
2024/01/18 08:03:19;;;;;;;0.70;0.70;;;4.70;99.90;;;;;;5054816;28;20645;-86
2024/01/18 08:05:44;;;;;;;0.80;0.80;;;4.60;99.90;;;;;;5061144;28;20305;-87
2024/01/18 08:08:10;;;;;;;0.60;0.60;;;4.70;99.90;;;;;;5069543;28;20175;-86
2024/01/18 08:10:35;;;;;;;0.80;0.80;;;5.00;99.90;;;;;;5052560;28;20156;-84
2024/01/18 08:13:02;;;;;;;0.80;0.80;;;4.60;99.90;;;;;;5071934;28;20305;-82
2024/01/18 08:15:28;;;;;;;0.90;0.90;;;4.60;99.90;;;;;;5057933;28;20179;-84
2024/01/18 08:17:53;;;;;;;0.70;0.70;;;4.50;99.90;;;;;;5073801;28;20229;-84
2024/01/18 08:20:19;;;;;;;0.70;0.70;;;4.50;99.90;;;;;;5073009;28;20241;-84
2024/01/18 08:22:45;;;;;;;0.80;0.80;;;4.50;99.90;;;;;;5072505;28;20221;-86
2024/01/18 08:25:11;;;;;;;0.70;0.70;;;4.60;99.90;;;;;;5071101;28;20183;-85
2024/01/18 08:27:40;;;;;;;0.70;0.70;;;4.60;99.90;;;;;;5058071;28;20201;-85
2024/01/18 08:30:06;;;;;;;0.70;0.70;;;4.50;99.90;;;;;;5055330;28;20236;-86
2024/01/18 08:32:34;;;;;;;0.70;0.70;;;4.50;99.90;;;;;;5056311;28;20194;-85
2024/01/18 08:35:06;;;;;;;0.80;0.80;;;4.40;99.90;;;;;;5056128;28;20556;-84
2024/01/18 08:37:32;;;;;;;0.80;0.80;;;4.40;99.90;;;;;;5052100;28;20210;-86
2024/01/18 08:39:58;;;;;;;0.80;0.80;;;4.30;99.90;;;;;;5055649;28;20198;-86
2024/01/18 08:42:26;;;;;;;0.80;0.80;;;4.20;99.90;;;;;;5056523;28;20484;-86
2024/01/18 08:44:51;;;;;;;0.60;0.60;;;4.00;99.90;;;;;;5057337;28;20597;-85
2024/01/18 08:47:17;;;;;;;0.70;0.70;;;3.90;99.90;;;;;;5055713;28;20233;-88
2024/01/18 08:49:43;;;;;;;0.80;0.80;;;3.80;99.90;;;;;;5063272;28;20162;-84
2024/01/18 08:52:09;;;;;;;0.80;0.80;;;3.70;99.90;;;;;;5074336;28;20183;-83
2024/01/18 08:54:34;;;;;;;0.70;0.70;;;3.70;99.90;;;;;;5073438;28;20186;-84
2024/01/18 08:57:00;;;;;;;0.73;0.73;;;3.60;99.90;;;;;;5058189;28;20213;-86
2024/01/18 08:59:25;;;;;;;0.87;0.87;;;3.50;99.90;;;;;;5056952;28;20229;-84
2024/01/18 09:01:51;;;;;;;0.90;0.90;;;3.40;99.90;;;;;;5055611;28;20175;-85
2024/01/18 09:04:17;;;;;;;0.80;0.80;;;3.30;99.90;;;;;;5056749;28;20175;-84
2024/01/18 09:06:45;;;;;;;0.87;0.87;;;3.20;99.90;;;;;;5056371;28;20199;-83
2024/01/18 09:09:11;;;;;;;0.77;0.77;;;3.70;99.90;;;;;;5060284;28;20175;-85
2024/01/18 09:11:38;;;;;;;0.70;0.70;;;3.10;99.90;;;;;;5056392;28;20767;-84
2024/01/18 09:14:04;;;;;;;0.80;0.80;;;3.20;99.90;;;;;;5054891;28;20176;-86
2024/01/18 09:16:31;;;;;;;0.80;0.80;;;3.20;99.90;;;;;;5053728;28;20198;-84
2024/01/18 09:18:57;;;;;;;0.80;0.80;;;3.30;99.90;;;;;;5044425;28;20608;-83
2024/01/18 09:21:22;;;;;;;0.87;0.87;;;3.20;99.90;;;;;;5056478;28;20205;-86
2024/01/18 09:23:48;;;;;;;0.80;0.80;;;3.00;99.90;;;;;;5037250;28;20214;-86
2024/01/18 09:26:13;;;;;;;0.73;0.73;;;2.90;99.90;;;;;;5055558;28;20209;-84
2024/01/18 09:28:40;;;;;;;0.80;0.80;;;3.20;99.90;;;;;;5055224;28;20227;-87
2024/01/18 09:31:06;;;;;;;0.90;0.90;;;2.60;99.90;;;;;;5055345;28;20187;-85
2024/01/18 09:33:32;;;;;;;0.80;0.80;;;2.50;99.90;;;;;;5037364;28;20183;-84
2024/01/18 09:35:57;;;;;;;0.90;0.90;;;2.60;99.90;;;;;;5057603;28;20175;-84
2024/01/18 09:38:23;;;;;;;0.97;0.97;;;2.60;99.90;;;;;;5058041;28;20260;-86
2024/01/18 09:40:48;;;;;;;0.80;0.80;;;2.60;99.90;;;;;;5040588;28;20262;-87
2024/01/18 09:43:15;;;;;;;0.83;0.83;;;2.60;99.90;;;;;;5059165;28;20178;-85
2024/01/18 09:45:45;;;;;;;0.90;0.90;;;2.50;99.90;;;;;;5058050;28;20671;-84
2024/01/18 09:48:12;;;;;;;0.80;0.80;;;2.40;99.90;;;;;;5039413;28;20175;-85
2024/01/18 09:50:47;;;;;;;0.90;0.90;;;2.30;99.90;;;;;;5040458;28;20187;-86
2024/01/18 09:53:13;;;;;;;0.87;0.87;;;2.30;99.90;;;;;;5039733;28;20172;-84
2024/01/18 09:55:39;;;;;;;0.90;0.90;;;2.40;99.90;;;;;;5039106;28;20175;-83
2024/01/18 09:58:13;;;;;;;0.80;0.80;;;2.30;99.90;;;;;;5057050;28;20223;-84
2024/01/18 10:00:57;;;;;;;0.90;0.90;;;2.30;99.90;;;;;;5037910;28;20175;-87
2024/01/18 10:03:24;;;;;;;0.90;0.90;;;2.30;99.90;;;;;;5040159;28;20171;-86
2024/01/18 10:05:50;;;;;;;0.83;0.83;;;2.20;99.90;;;;;;5040200;28;20241;-86
2024/01/18 10:08:16;;;;;;;0.80;0.80;;;2.30;99.90;;;;;;5050216;28;20576;-86
2024/01/18 10:10:42;;;;;;;1.00;1.00;;;2.30;99.90;;;;;;5043148;28;20175;-83
2024/01/18 10:13:13;;;;;;;0.80;0.80;;;2.30;99.90;;;;;;5047748;28;20645;-86
2024/01/18 10:15:39;;;;;;;0.97;0.97;;;2.30;99.90;;;;;;5056083;28;20175;-84
2024/01/18 10:18:06;;;;;;;0.90;0.90;;;2.30;99.90;;;;;;5038736;28;20218;-85
2024/01/18 10:20:32;;;;;;;0.80;0.80;;;2.30;99.90;;;;;;5037806;28;20211;-85
2024/01/18 10:22:58;;;;;;;0.80;0.80;;;2.20;99.90;;;;;;5055544;28;20220;-84
2024/01/18 10:25:26;;;;;;;0.90;0.90;;;2.20;99.90;;;;;;5057300;28;20175;-86
2024/01/18 10:27:53;;;;;;;1.00;1.00;;;2.10;99.90;;;;;;5049593;28;20706;-84
2024/01/18 10:30:19;;;;;;;0.90;0.90;;;2.10;99.90;;;;;;5028251;28;20179;-84
2024/01/18 10:32:45;;;;;;;0.80;0.80;;;2.30;99.90;;;;;;5039876;28;20238;-80
2024/01/18 10:35:24;;;;;;;0.90;0.90;;;2.30;99.90;;;;;;5059426;28;20554;-84
2024/01/18 10:38:06;;;;;;;0.80;0.80;;;2.30;99.90;;;;;;5054561;28;20211;-84
2024/01/18 10:40:38;;;;;;;0.80;0.80;;;2.20;99.90;;;;;;5056307;28;20656;-83
2024/01/18 10:43:07;;;;;;;0.90;0.90;;;2.20;99.90;;;;;;5041280;28;20649;-86
2024/01/18 10:45:33;;;;;;;0.90;0.90;;;2.20;99.90;;;;;;5057722;28;20365;-83
2024/01/18 10:47:59;;;;;;;0.80;0.80;;;2.10;99.90;;;;;;5041081;28;20313;-84
2024/01/18 10:50:28;;;;;;;0.90;0.90;;;2.00;99.90;;;;;;5059000;28;20717;-85
2024/01/18 10:52:57;;;;;;;0.90;0.90;;;2.00;99.90;;;;;;5059556;28;20179;-84
2024/01/18 10:55:22;;;;;;;0.90;0.90;;;2.00;99.90;;;;;;5059802;28;20189;-85
2024/01/18 10:57:48;;;;;;;0.90;0.90;;;2.10;99.90;;;;;;5060599;28;20274;-85
2024/01/18 11:00:15;;;;;;;0.87;0.87;;;2.00;99.90;;;;;;5059720;28;20190;-84
2024/01/18 11:02:44;;;;;;;0.90;0.90;;;2.00;99.90;;;;;;5059496;28;20182;-85
2024/01/18 11:05:13;;;;;;;0.80;0.80;;;1.90;99.90;;;;;;5062270;28;20183;-84
2024/01/18 11:07:42;;;;;;;0.90;0.90;;;1.80;99.90;;;;;;5057247;28;20303;-87
2024/01/18 11:10:10;;;;;;;1.00;1.00;;;1.90;99.90;;;;;;5041136;28;20179;-86
2024/01/18 11:12:41;;;;;;;0.90;0.90;;;1.90;99.90;;;;;;5059316;28;20190;-85
2024/01/18 11:15:10;;;;;;;0.83;0.83;;;1.80;99.90;;;;;;5057560;28;20243;-85
2024/01/18 11:17:42;;;;;;;0.90;0.90;;;1.90;99.90;;;;;;5056237;28;20207;-85
2024/01/18 11:20:09;;;;;;;0.90;0.90;;;1.80;99.90;;;;;;5055755;28;20176;-86
2024/01/18 11:22:36;;;;;;;0.90;0.90;;;1.80;99.90;;;;;;5061565;28;20200;-85
2024/01/18 11:25:05;;;;;;;1.00;1.00;;;1.90;99.90;;;;;;5058167;28;20202;-86
2024/01/18 11:27:37;;;;;;;0.80;0.80;;;1.90;99.90;;;;;;5039276;28;20245;-87
2024/01/18 11:30:04;;;;;;;1.00;1.00;;;1.90;99.90;;;;;;5057919;28;20179;-85
2024/01/18 11:32:31;;;;;;;1.00;1.00;;;1.80;99.90;;;;;;5059758;28;20194;-86
2024/01/18 11:35:14;;;;;;;0.80;0.80;;;1.80;99.90;;;;;;5057446;28;20562;-86
2024/01/18 11:37:40;;;;;;;0.90;0.90;;;1.70;99.90;;;;;;5059392;28;20218;-85
2024/01/18 11:40:08;;;;;;;0.90;0.90;;;1.80;99.90;;;;;;5057334;28;20175;-84
2024/01/18 11:42:34;;;;;;;0.90;0.90;;;1.80;99.90;;;;;;5057160;28;20195;-83
2024/01/18 11:45:15;;;;;;;0.80;0.80;;;1.90;99.90;;;;;;5038637;28;20254;-84
2024/01/18 11:47:41;;;;;;;0.70;0.70;;;2.00;99.90;;;;;;5039509;28;20205;-81
2024/01/18 11:50:10;;;;;;;0.80;0.80;;;2.00;99.90;;;;;;5058526;28;20551;-87
2024/01/18 11:52:38;;;;;;;0.90;0.90;;;2.10;99.90;;;;;;5039186;28;20186;-81
2024/01/18 11:55:05;;;;;;;0.83;0.83;;;2.10;99.90;;;;;;5060291;28;20189;-82
2024/01/18 11:57:32;;;;;;;0.80;0.80;;;2.10;99.90;;;;;;5067306;28;20194;-84
2024/01/18 11:59:59;;;;;;;0.90;0.90;;;2.10;99.90;;;;;;5075936;28;20159;-81
2024/01/18 12:02:26;;;;;;;0.80;0.80;;;2.00;99.90;;;;;;5077339;28;20170;-81
2024/01/18 12:04:52;;;;;;;1.00;1.00;;;1.90;99.90;;;;;;5076963;28;20193;-81
2024/01/18 12:07:19;;;;;;;0.80;0.80;;;1.90;99.90;;;;;;5067006;28;20767;-85
2024/01/18 12:09:45;;;;;;;0.90;0.90;;;1.80;99.90;;;;;;5064136;28;20191;-83
2024/01/18 12:12:11;;;;;;;0.80;0.80;;;1.70;99.90;;;;;;5065975;28;20239;-84
2024/01/18 12:14:41;;;;;;;0.90;0.90;;;1.70;99.90;;;;;;5062756;28;20195;-85
2024/01/18 12:17:09;;;;;;;0.90;0.90;;;1.60;99.90;;;;;;5064588;28;20195;-84
2024/01/18 12:19:37;;;;;;;1.00;1.00;;;1.50;99.90;;;;;;5044424;28;20288;-84
2024/01/18 12:22:07;;;;;;;0.90;0.90;;;1.50;99.90;;;;;;5059414;28;20190;-85
2024/01/18 12:24:33;;;;;;;0.90;0.90;;;1.60;99.90;;;;;;5057918;28;20175;-82
2024/01/18 12:26:59;;;;;;;0.80;0.80;;;1.60;99.90;;;;;;5061129;28;20219;-84
2024/01/18 12:29:26;;;;;;;0.90;0.90;;;1.50;99.90;;;;;;5056561;28;20171;-84
2024/01/18 12:31:52;;;;;;;0.90;0.90;;;1.50;99.90;;;;;;5056748;28;20621;-86
2024/01/18 12:34:19;;;;;;;0.90;0.90;;;1.40;99.90;;;;;;5056588;28;20749;-85
2024/01/18 12:36:46;;;;;;;0.80;0.80;;;1.40;99.90;;;;;;5039169;28;20213;-84
2024/01/18 12:39:12;;;;;;;0.90;0.90;;;1.40;99.90;;;;;;5057114;28;20219;-85
2024/01/18 12:41:37;;;;;;;0.80;0.80;;;1.50;99.90;;;;;;5060454;28;20240;-85
2024/01/18 12:44:06;;;;;;;0.80;0.80;;;1.50;99.90;;;;;;5059047;28;20614;-85
2024/01/18 12:46:36;;;;;;;0.90;0.90;;;1.60;99.90;;;;;;5058421;28;20217;-85
2024/01/18 12:49:03;;;;;;;0.90;0.90;;;1.70;99.90;;;;;;5046098;28;20164;-85
2024/01/18 12:51:28;;;;;;;0.90;0.90;;;1.80;99.90;;;;;;5055244;28;20187;-84
2024/01/18 12:53:58;;;;;;;0.90;0.90;;;1.80;99.90;;;;;;5075182;28;20213;-84